Data for 07/24/2009

Time Sea-Level Adjusted Pressure Absolute Pressure Temperature Relative Humidity Dew Point   
(mb) (inHg) (mb) (inHg) (C) (F) (%) (C) (F)
00:05 1019 30.09 848 25.04 21.2 70.2 37 6 42.7
00:10 1018 30.06 848 25.04 21 69.8 41 7.4 45.3
00:15 1018 30.06 848 25.04 20.9 69.5 41 7.2 45
00:20 1018 30.06 848 25.04 21 69.7 36 5.7 42.2
00:25 1018 30.06 848 25.04 21.5 70.8 33 4.8 40.6
00:30 1019 30.09 848 25.04 22.2 71.9 33 5.2 41.4
00:35 1019 30.09 848 25.04 21.9 71.4 35 5.9 42.5
00:40 1019 30.09 848 25.04 21.8 71.2 35 5.8 42.4
00:45 1019 30.09 848 25.04 21.9 71.5 35 6.2 43.1
00:50 1019 30.09 848 25.04 21.6 70.9 35 5.7 42.2
00:55 1019 30.09 848 25.04 21.8 71.3 34 5.3 41.6
01:00 1019 30.09 848 25.04 22 71.7 34 5.6 42.1
01:05 1019 30.09 848 25.04 22.1 71.8 33 5.4 41.8
01:10 1019 30.09 848 25.04 21.8 71.2 37 6.8 44.2
01:15 1019 30.09 848 25.04 21.1 69.9 41 7.6 45.7
01:20 1019 30.09 848 25.04 20.8 69.4 40 6.7 44.1
01:25 1019 30.09 848 25.04 21 69.7 39 6.8 44.2
01:30 1019 30.09 848 25.04 21.1 70 42 7.9 46.3
01:35 1019 30.09 848 25.04 20.9 69.6 43 8.1 46.5
01:40 1019 30.09 848 25.04 20.6 69.1 43 7.8 46
01:45 1019 30.09 848 25.04 20.2 68.4 47 8.8 47.8
01:50 1019 30.09 849 25.07 19.9 67.8 47 8.4 47.1
01:55 1019 30.09 849 25.07 19.9 67.7 48 8.8 47.8
02:00 1019 30.09 849 25.07 19.6 67.3 48 8.5 47.3
02:05 1019 30.09 849 25.07 19.3 66.7 46 7.6 45.6
02:10 1019 30.09 848 25.04 19.4 66.8 47 7.8 46.1
02:15 1019 30.09 849 25.07 19.2 66.6 48 8.2 46.7
02:20 1019 30.09 849 25.07 19.3 66.7 48 8 46.4
02:25 1019 30.09 849 25.07 19.4 67 48 8.2 46.7
02:30 1019 30.09 849 25.07 19.5 67.2 48 8.3 46.9
02:35 1020 30.12 849 25.07 19.6 67.3 45 7.5 45.5
02:40 1020 30.12 849 25.07 19.8 67.6 47 8.4 47.2
02:45 1020 30.12 849 25.07 19.9 67.9 47 8.3 46.9
02:50 1020 30.12 849 25.07 19.7 67.4 48 8.4 47.1
02:55 1020 30.12 849 25.07 19.9 67.9 48 8.8 47.9
03:00 1020 30.12 849 25.07 19.8 67.6 48 8.7 47.6
03:05 1020 30.12 849 25.07 19.5 67 48 8.4 47.2
03:10 1020 30.12 849 25.07 19.4 66.8 48 8.2 46.8
03:15 1020 30.12 849 25.07 19.5 67.1 51 9.1 48.4
03:20 1020 30.12 849 25.07 19.5 67.1 49 8.7 47.7
03:25 1020 30.12 849 25.07 19.4 66.9 53 9.8 49.6
03:30 1020 30.12 849 25.07 19.2 66.6 53 9.5 49
03:35 1020 30.12 849 25.07 19.2 66.5 55 10.1 50.2
03:40 1020 30.12 849 25.07 19.2 66.5 51 9 48.2
03:45 1020 30.12 849 25.07 19.3 66.7 49 8.5 47.3
03:50 1020 30.12 849 25.07 19.5 67.1 50 8.9 48.1
03:55 1020 30.12 849 25.07 19.6 67.3 51 9.4 49
04:00 1020 30.12 849 25.07 19.6 67.2 50 9 48.1
04:05 1020 30.12 849 25.07 19.4 67 50 8.7 47.7
04:10 1020 30.12 849 25.07 19.1 66.3 51 8.7 47.7
04:15 1020 30.12 849 25.07 18.7 65.7 53 9.1 48.4
04:20 1020 30.12 849 25.07 18.5 65.3 52 8.7 47.7
04:25 1020 30.12 849 25.07 18.6 65.4 57 9.9 49.8
04:30 1020 30.12 849 25.07 19 66.2 49 8.3 46.9
04:35 1020 30.12 849 25.07 19.2 66.6 52 9.4 48.9
04:40 1020 30.12 849 25.07 19.3 66.7 49 8.3 47
04:45 1020 30.12 849 25.07 19.3 66.8 49 8.5 47.3
04:50 1020 30.12 849 25.07 19.2 66.5 51 8.9 48.1
04:55 1020 30.12 849 25.07 19 66.2 52 9 48.2
05:00 1020 30.12 849 25.07 19.3 66.7 51 9.1 48.4
05:05 1020 30.12 849 25.07 19.2 66.5 53 9.6 49.2
05:10 1020 30.12 849 25.07 18.8 65.8 53 9 48.2
05:15 1020 30.12 849 25.07 18.4 65.1 55 9.2 48.6
05:20 1020 30.12 849 25.07 18.3 64.9 53 8.6 47.5
05:25 1020 30.12 849 25.07 18.3 65 54 8.9 48
05:30 1020 30.12 849 25.07 18.4 65.1 51 8.1 46.5
05:35 1020 30.12 849 25.07 18.6 65.4 51 8.5 47.3
05:40 1020 30.12 849 25.07 18.5 65.3 51 8.4 47.1
05:45 1020 30.12 849 25.07 18.7 65.6 50 8.2 46.8
05:50 1020 30.12 849 25.07 18.9 65.9 49 7.9 46.2
05:55 1020 30.12 849 25.07 19.2 66.6 47 7.7 45.9
06:00 1020 30.12 849 25.07 19.5 67.1 47 8.1 46.5
06:05 1020 30.12 849 25.07 19.3 66.8 48 8 46.5
06:10 1020 30.12 849 25.07 19.2 66.5 48 8.2 46.7
06:15 1020 30.12 849 25.07 19 66.3 49 8.3 47
06:20 1020 30.12 850 25.1 19.2 66.6 46 7.6 45.7
06:25 1021 30.15 850 25.1 19.5 67.1 48 8.5 47.3
06:30 1021 30.15 850 25.1 19.4 67 49 8.6 47.4
06:35 1021 30.15 850 25.1 19.3 66.8 49 8.5 47.4
06:40 1021 30.15 850 25.1 19.2 66.6 49 8.5 47.3
06:45 1021 30.15 850 25.1 19.4 66.9 48 8.2 46.8
06:50 1021 30.15 851 25.13 19.5 67.2 48 8.4 47.2
06:55 1022 30.18 851 25.13 19.5 67.1 52 9.4 48.9
07:00 1022 30.18 851 25.13 19.1 66.4 52 9 48.3
07:05 1021 30.15 850 25.1 19.2 66.6 53 9.6 49.2
07:10 1021 30.15 851 25.13 19.2 66.6 51 9 48.2
07:15 1021 30.15 850 25.1 19.4 66.8 52 9.5 49.1
07:20 1021 30.15 850 25.1 19.5 67.1 47 8 46.4
07:25 1020 30.12 849 25.07 19.5 67.1 52 9.4 49
07:30 1020 30.12 849 25.07 19 66.3 54 9.6 49.3
07:35 1020 30.12 849 25.07 18.7 65.7 56 10 49.9
07:40 1020 30.12 850 25.1 18.4 65.1 57 10 49.9
07:45 1020 30.12 850 25.1 18.8 65.8 53 9.2 48.5
07:50 1020 30.12 849 25.07 19.2 66.6 51 8.9 48
07:55 1020 30.12 849 25.07 19.9 67.8 47 8.5 47.3
08:00 1020 30.12 849 25.07 19.8 67.6 52 9.9 49.8
08:05 1020 30.12 850 25.1 19.1 66.3 56 10.3 50.5
08:10 1020 30.12 850 25.1 18.8 65.8 58 10.4 50.8
08:15 1020 30.12 850 25.1 18.5 65.3 58 10.2 50.4
08:20 1020 30.12 850 25.1 18.7 65.6 55 9.6 49.2
08:25 1020 30.12 850 25.1 18.7 65.7 56 9.9 49.8
08:30 1020 30.12 849 25.07 18.7 65.7 57 10.1 50.2
08:35 1020 30.12 849 25.07 18.7 65.7 56 9.9 49.9
08:40 1020 30.12 849 25.07 18.8 65.9 55 9.8 49.7
08:45 1020 30.12 849 25.07 19 66.2 54 9.7 49.4
08:50 1020 30.12 849 25.07 19.5 67 53 9.9 49.8
08:55 1020 30.12 849 25.07 19.9 67.9 51 9.6 49.3
09:00 1020 30.12 849 25.07 20.5 68.8 52 10.3 50.5
09:05 1020 30.12 849 25.07 21 69.7 48 9.5 49.1
09:10 1020 30.12 849 25.07 21.6 70.9 45 9.3 48.8
09:15 1020 30.12 849 25.07 21.8 71.3 44 9.3 48.7
09:20 1020 30.12 849 25.07 22 71.6 46 9.9 49.9
09:25 1020 30.12 849 25.07 22.1 71.7 44 9.5 49.1
09:30 1020 30.12 849 25.07 22.4 72.4 43 9.4 48.9
09:35 1020 30.12 849 25.07 22.6 72.7 42 9.2 48.5
09:40 1020 30.12 849 25.07 22.3 72.1 44 9.7 49.4
09:45 1020 30.12 849 25.07 22.1 71.8 45 9.8 49.7
09:50 1020 30.12 849 25.07 22.1 71.7 45 9.7 49.4
09:55 1020 30.12 849 25.07 22.6 72.6 42 9.2 48.6
10:00 1020 30.12 849 25.07 23.1 73.5 42 9.8 49.7
10:05 1020 30.12 849 25.07 23.2 73.8 40 9.2 48.6
10:10 1020 30.12 849 25.07 23.5 74.2 41 9.6 49.3
10:15 1020 30.12 849 25.07 23.8 74.8 39 9.2 48.6
10:20 1020 30.12 849 25.07 24.2 75.6 38 9.3 48.7
10:25 1020 30.12 849 25.07 24.3 75.7 38 9.2 48.5
10:30 1020 30.12 849 25.07 24.6 76.3 38 9.4 48.9
10:35 1020 30.12 849 25.07 24.9 76.7 35 8.7 47.6
10:40 1020 30.12 849 25.07 25.4 77.8 35 9.3 48.7
10:45 1020 30.12 849 25.07 25.6 78.1 34 9 48.3
10:50 1020 30.12 849 25.07 25.7 78.2 35 9.2 48.5
10:55 1020 30.12 849 25.07 25.7 78.3 33 8.5 47.3
11:00 1020 30.12 849 25.07 26 78.7 33 8.9 48
11:05 1019 30.09 849 25.07 26.3 79.3 33 8.9 48
11:10 1019 30.09 849 25.07 26.5 79.6 33 9.2 48.5
11:15 1019 30.09 849 25.07 26.7 80 32 8.8 47.8
11:20 1019 30.09 849 25.07 26.8 80.2 32 8.9 48.1
11:25 1019 30.09 849 25.07 27.3 81.1 30 8.6 47.5
11:30 1019 30.09 849 25.07 27.4 81.3 30 8.4 47.1
11:35 1019 30.09 849 25.07 27.4 81.3 30 8.4 47.1
11:40 1019 30.09 849 25.07 27.4 81.3 29 8.2 46.8
11:45 1019 30.09 848 25.04 27.6 81.6 28 7.8 46
11:50 1019 30.09 848 25.04 28 82.4 27 7.4 45.3
11:55 1019 30.09 848 25.04 28 82.4 27 7.7 45.9
12:00 1019 30.09 848 25.04 28 82.3 29 8.5 47.3
12:05 1019 30.09 848 25.04 28.5 83.4 27 7.9 46.2
12:10 1019 30.09 848 25.04 28.6 83.5 27 8.2 46.7
12:15 1019 30.09 848 25.04 28.6 83.4 28 8.4 47.1
12:20 1019 30.09 848 25.04 28.7 83.7 27 8.3 47
12:25 1019 30.09 848 25.04 28.6 83.5 27 8.2 46.8
12:30 1019 30.09 848 25.04 28.4 83.1 28 8.2 46.8
12:35 1019 30.09 848 25.04 28.1 82.5 28 8.1 46.6
12:40 1019 30.09 848 25.04 27.9 82.2 28 8 46.3
12:45 1019 30.09 848 25.04 27.8 82 28 8 46.4
12:50 1019 30.09 848 25.04 28.1 82.5 27 7.5 45.5
12:55 1019 30.09 848 25.04 28.2 82.8 27 7.7 45.8
13:00 1019 30.09 848 25.04 28.6 83.4 27 7.9 46.2
13:05 1019 30.09 848 25.04 29.1 84.3 27 8.5 47.4
13:10 1019 30.09 848 25.04 29.2 84.5 27 8.7 47.7
13:15 1019 30.09 848 25.04 29.1 84.5 27 8.6 47.5
13:20 1019 30.09 848 25.04 28.7 83.6 27 8.2 46.8
13:25 1019 30.09 848 25.04 29 84.2 26 8 46.3
13:30 1019 30.09 848 25.04 29.4 84.9 24 7.2 45
13:35 1019 30.09 848 25.04 29.6 85.4 25 7.9 46.3
13:40 1019 30.09 848 25.04 30 85.9 25 8.1 46.7
13:45 1019 30.09 848 25.04 30 85.9 25 8.2 46.7
13:50 1018 30.06 848 25.04 29.7 85.4 26 8.3 46.9
13:55 1018 30.06 848 25.04 29.9 85.7 25 7.9 46.2
14:00 1018 30.06 847 25.01 29.8 85.6 26 8.8 47.8
14:05 1018 30.06 847 25.01 30 86 24 7.9 46.2
14:10 1018 30.06 847 25.01 29.4 84.9 26 8 46.3
14:15 1018 30.06 847 25.01 28.9 84.1 27 8.6 47.4
14:20 1018 30.06 847 25.01 29.1 84.4 27 8.4 47.2
14:25 1018 30.06 847 25.01 29.2 84.6 27 8.7 47.6
14:30 1018 30.06 847 25.01 29.2 84.6 26 8.1 46.7
14:35 1018 30.06 847 25.01 29.5 85.1 26 8.3 47
14:40 1018 30.06 847 25.01 29.2 84.6 27 8.5 47.4
14:45 1018 30.06 847 25.01 29.4 84.8 28 9.1 48.3
14:50 1018 30.06 847 25.01 28.7 83.6 28 8.6 47.6
14:55 1018 30.06 847 25.01 28.5 83.3 26 7.5 45.5
15:00 1018 30.06 847 25.01 28.5 83.2 27 8 46.4
15:05 1018 30.06 847 25.01 28.7 83.6 26 7.8 46
15:10 1018 30.06 847 25.01 28.5 83.3 25 7.1 44.8
15:15 1018 30.06 847 25.01 28.7 83.7 27 8.2 46.7
15:20 1018 30.06 847 25.01 29 84.1 23 6.3 43.3
15:25 1018 30.06 847 25.01 28.4 83.1 23 5.8 42.5
15:30 1018 30.06 847 25.01 28.4 83.2 26 7.4 45.4
15:35 1018 30.06 847 25.01 27.5 81.5 26 6.6 43.9
15:40 1018 30.06 847 25.01 27.3 81.1 27 6.7 44.1
15:45 1018 30.06 847 25.01 27.2 80.9 28 7.4 45.2
15:50 1018 30.06 847 25.01 26.9 80.5 27 6.8 44.2
15:55 1018 30.06 847 25.01 26.6 79.9 30 7.8 46.1
16:00 1018 30.06 847 25.01 26.6 79.8 27 6.5 43.7
16:05 1019 30.09 848 25.04 26.6 79.8 29 7.3 45.1
16:10 1020 30.12 849 25.07 25.6 78 33 8.2 46.7
16:15 1020 30.12 849 25.07 23.5 74.4 42 9.9 49.9
16:20 1020 30.12 850 25.1 21.1 70.1 62 13.7 56.7
16:25 1021 30.15 850 25.1 18.9 66 71 13.5 56.4
16:30 1022 30.18 851 25.13 18.1 64.5 68 12.1 53.8
16:35 1022 30.18 852 25.16 17.9 64.1 68 11.9 53.4
16:40 1023 30.21 852 25.16 18.5 65.2 60 10.7 51.3
16:45 1024 30.24 853 25.19 18.8 65.8 66 12.3 54.1
16:50 1024 30.24 853 25.19 17.6 63.6 77 13.6 56.4
16:55 1024 30.24 853 25.19 16.2 61.1 82 13.2 55.7
17:00 1023 30.21 853 25.19 15.9 60.6 83 13.1 55.6
17:05 1023 30.21 852 25.16 15.5 59.9 84 12.8 55
17:10 1023 30.21 853 25.19 15.7 60.2 84 12.9 55.3
17:15 1024 30.24 853 25.19 15.8 60.4 84 13 55.5
17:20 1024 30.24 853 25.19 16 60.9 78 12.2 54
17:25 1024 30.24 853 25.19 16.3 61.4 79 12.7 54.8
17:30 1024 30.24 853 25.19 16.1 61.1 82 13 55.4
17:35 1023 30.21 852 25.16 15.7 60.2 83 12.8 55
17:40 1023 30.21 852 25.16 15.7 60.3 79 12.2 54
17:45 1023 30.21 853 25.19 15.9 60.7 80 12.5 54.5
17:50 1023 30.21 852 25.16 15.7 60.3 78 11.9 53.4
17:55 1022 30.18 851 25.13 15.4 59.7 84 12.6 54.8
18:00 1021 30.15 851 25.13 14.9 58.8 83 12.1 53.8
18:05 1021 30.15 850 25.1 15.1 59.1 81 11.8 53.3
18:10 1021 30.15 850 25.1 15.5 59.8 81 12.3 54.1
18:15 1021 30.15 850 25.1 15.5 59.8 79 11.9 53.4
18:20 1021 30.15 851 25.13 15.7 60.3 77 11.7 53
18:25 1022 30.18 851 25.13 16 60.9 73 11.2 52.1
18:30 1022 30.18 851 25.13 16.5 61.6 73 11.6 53
18:35 1022 30.18 851 25.13 16.5 61.7 73 11.8 53.2
18:40 1022 30.18 851 25.13 16.7 62 70 11.3 52.4
18:45 1022 30.18 851 25.13 17.3 63.1 68 11.3 52.3
18:50 1022 30.18 851 25.13 17.8 64 63 10.7 51.3
18:55 1022 30.18 851 25.13 17.5 63.5 70 12 53.7
19:00 1022 30.18 851 25.13 16.8 62.3 71 11.6 52.9
19:05 1022 30.18 851 25.13 16.6 61.8 74 12.1 53.7
19:10 1022 30.18 851 25.13 16.3 61.4 74 11.8 53.2
19:15 1022 30.18 851 25.13 16.4 61.5 74 11.9 53.3
19:20 1022 30.18 851 25.13 16.4 61.4 73 11.6 52.9
19:25 1022 30.18 851 25.13 16.5 61.8 72 11.6 52.9
19:30 1022 30.18 851 25.13 16.9 62.3 71 11.5 52.8
19:35 1022 30.18 851 25.13 17 62.5 71 11.7 53
19:40 1022 30.18 851 25.13 16.9 62.5 71 11.7 53.1
19:45 1022 30.18 851 25.13 17 62.6 69 11.3 52.4
19:50 1022 30.18 851 25.13 17.1 62.8 68 11.2 52.1
19:55 1022 30.18 851 25.13 17.2 63 67 11.1 52
20:00 1022 30.18 851 25.13 17.3 63.1 67 11.1 51.9
20:05 1022 30.18 851 25.13 17.3 63.1 68 11.5 52.6
20:10 1022 30.18 851 25.13 17.1 62.7 69 11.5 52.7
20:15 1022 30.18 851 25.13 16.9 62.5 70 11.6 52.8
20:20 1022 30.18 851 25.13 16.8 62.2 71 11.6 52.9
20:25 1022 30.18 851 25.13 16.7 62 71 11.5 52.7
20:30 1022 30.18 851 25.13 16.6 61.9 70 11.2 52.1
20:35 1022 30.18 851 25.13 16.7 62 70 11.3 52.4
20:40 1022 30.18 851 25.13 16.6 61.9 69 11 51.9
20:45 1022 30.18 851 25.13 16.6 61.9 69 11 51.8
20:50 1022 30.18 851 25.13 16.6 61.8 69 10.8 51.5
20:55 1022 30.18 851 25.13 16.6 61.8 69 10.9 51.7
21:00 1022 30.18 851 25.13 16.5 61.8 69 10.9 51.6
21:05 1022 30.18 851 25.13 16.5 61.6 69 10.9 51.7
21:10 1022 30.18 851 25.13 16.4 61.5 69 10.8 51.4
21:15 1022 30.18 851 25.13 16.3 61.4 70 10.9 51.6
21:20 1022 30.18 851 25.13 16.2 61.1 70 10.8 51.5
21:25 1022 30.18 851 25.13 16.1 61 71 10.8 51.4
21:30 1022 30.18 851 25.13 16.1 61 71 11 51.8
21:35 1022 30.18 851 25.13 16 60.9 71 10.8 51.4
21:40 1022 30.18 851 25.13 16.1 60.9 71 10.8 51.4
21:45 1022 30.18 851 25.13 16.1 60.9 71 10.8 51.4
21:50 1022 30.18 851 25.13 16 60.8 70 10.7 51.2
21:55 1022 30.18 851 25.13 16.2 61.1 68 10.2 50.4
22:00 1022 30.18 851 25.13 16.5 61.6 66 10.2 50.4
22:05 1022 30.18 851 25.13 16.5 61.6 67 10.3 50.5
22:10 1022 30.18 851 25.13 16.6 61.8 66 10.3 50.5
22:15 1022 30.18 851 25.13 16.6 61.9 65 10.2 50.3
22:20 1022 30.18 851 25.13 16.6 61.9 66 10.3 50.6
22:25 1022 30.18 851 25.13 16.6 61.8 65 10.1 50.2
22:30 1022 30.18 851 25.13 16.7 62 65 10.1 50.2
22:35 1022 30.18 851 25.13 16.7 62 65 10.2 50.4
22:40 1022 30.18 851 25.13 16.7 62.1 64 10 50
22:45 1022 30.18 851 25.13 16.8 62.2 64 10.1 50.1
22:50 1022 30.18 851 25.13 16.8 62.2 65 10.2 50.3
22:55 1022 30.18 851 25.13 16.7 62.1 65 10.1 50.1
23:00 1022 30.18 851 25.13 16.6 61.9 65 10.1 50.2
23:05 1022 30.18 851 25.13 16.6 61.9 64 9.9 49.9
23:10 1022 30.18 851 25.13 16.7 62 64 9.9 49.9
23:15 1022 30.18 851 25.13 16.6 62 64 9.9 49.9
23:20 1022 30.18 851 25.13 16.7 62 64 10 49.9
23:25 1022 30.18 852 25.16 16.6 61.9 64 9.9 49.9
23:30 1022 30.18 852 25.16 16.5 61.7 64 9.8 49.6
23:35 1022 30.18 852 25.16 16.3 61.3 65 9.8 49.7
23:40 1023 30.21 852 25.16 16.1 61 66 9.8 49.7
23:45 1023 30.21 852 25.16 16 60.8 66 9.8 49.7
23:50 1023 30.21 852 25.16 15.9 60.7 67 9.9 49.7
23:55 1023 30.21 852 25.16 15.9 60.5 67 9.8 49.6
24:00 1023 30.21 852 25.16 15.9 60.6 67 9.8 49.7